Time;durP1;ratioP1;P1;durP2;ratioP2;P2;SDS_P1;SDS_P2;PMS_P1;PMS_P2;Temp;Humidity;BMP_temperature;BMP_pressure;BME280_temperature;BME280_humidity;BME280_pressure;Samples;Min_cycle;Max_cycle;Signal;HPM_P1;HPM_P2
2023/05/16 00:01:50;;;;;;;20.73;17.87;;;14.80;99.90;;;;;;10510787;28;20272;-74
2023/05/16 00:06:51;;;;;;;21.30;19.07;;;14.80;99.90;;;;;;10515418;28;20226;-73
2023/05/16 00:11:55;;;;;;;24.33;19.63;;;14.70;99.90;;;;;;10515283;28;20239;-73
2023/05/16 00:17:10;;;;;;;30.33;22.77;;;14.50;99.90;;;;;;10497066;28;20578;-74
2023/05/16 00:22:10;;;;;;;27.00;20.83;;;14.40;99.90;;;;;;10515652;28;20691;-73
2023/05/16 00:27:11;;;;;;;27.13;23.03;;;14.30;99.90;;;;;;10510720;28;20222;-74
2023/05/16 00:32:11;;;;;;;27.00;22.47;;;14.30;99.90;;;;;;10517747;28;20226;-74
2023/05/16 00:37:12;;;;;;;27.50;22.73;;;14.10;99.90;;;;;;10499655;28;20719;-74
2023/05/16 00:42:13;;;;;;;30.77;24.27;;;14.00;99.90;;;;;;10500825;28;20219;-74
2023/05/16 00:47:16;;;;;;;30.60;23.83;;;13.80;99.90;;;;;;10499573;28;20348;-73
2023/05/16 00:52:17;;;;;;;28.67;24.27;;;13.80;99.90;;;;;;10517484;28;20218;-73
2023/05/16 00:57:18;;;;;;;32.23;23.47;;;13.70;99.90;;;;;;10508876;28;20222;-73
2023/05/16 01:02:19;;;;;;;31.10;26.83;;;13.70;99.90;;;;;;10517329;28;20576;-70
2023/05/16 01:07:19;;;;;;;29.03;24.37;;;13.80;99.90;;;;;;10509383;28;20215;-70
2023/05/16 01:12:35;;;;;;;29.47;26.07;;;13.70;99.90;;;;;;10516882;28;20655;-71
2023/05/16 01:17:42;;;;;;;31.40;26.30;;;13.70;99.90;;;;;;10507736;28;20249;-69
2023/05/16 01:23:01;;;;;;;29.13;24.40;;;13.70;99.90;;;;;;10508312;28;20222;-71
2023/05/16 01:28:03;;;;;;;30.00;24.47;;;13.80;99.90;;;;;;10513759;28;20237;-70
2023/05/16 01:33:03;;;;;;;28.07;24.80;;;13.80;99.90;;;;;;10523468;28;20682;-68
2023/05/16 01:38:15;;;;;;;26.97;23.27;;;13.80;99.90;;;;;;10509635;28;20368;-70
2023/05/16 01:43:22;;;;;;;26.50;23.63;;;13.90;99.90;;;;;;10515471;28;20214;-69
2023/05/16 01:48:29;;;;;;;25.83;23.13;;;14.00;99.90;;;;;;10507363;28;20245;-68
2023/05/16 01:53:37;;;;;;;27.17;21.37;;;14.00;99.90;;;;;;10495486;28;20230;-69
2023/05/16 01:58:39;;;;;;;28.27;23.53;;;14.00;99.90;;;;;;10499405;28;20232;-70
2023/05/16 02:03:40;;;;;;;25.13;22.57;;;14.00;99.90;;;;;;10499801;28;20242;-70
2023/05/16 02:08:40;;;;;;;31.20;26.63;;;14.10;99.90;;;;;;10511256;28;20689;-71
2023/05/16 02:13:41;;;;;;;26.50;23.53;;;14.00;99.90;;;;;;10508878;28;20227;-70
2023/05/16 02:18:43;;;;;;;26.53;23.83;;;14.00;99.90;;;;;;10505515;28;20226;-70
2023/05/16 02:23:44;;;;;;;30.87;24.17;;;14.00;99.90;;;;;;10496237;28;20222;-69
2023/05/16 02:28:45;;;;;;;27.60;24.70;;;13.90;99.90;;;;;;10510400;28;20227;-69
2023/05/16 02:33:45;;;;;;;27.70;24.73;;;13.90;99.90;;;;;;10513946;28;20222;-70
2023/05/16 02:38:46;;;;;;;26.33;23.00;;;13.80;99.90;;;;;;10509349;28;20726;-69
2023/05/16 02:43:48;;;;;;;29.97;23.87;;;13.60;99.90;;;;;;10499924;28;20313;-70
2023/05/16 02:48:50;;;;;;;27.77;22.63;;;13.50;99.90;;;;;;10503201;28;20223;-71
2023/05/16 02:53:51;;;;;;;26.10;22.77;;;13.50;99.90;;;;;;10501235;28;20226;-70
2023/05/16 02:58:53;;;;;;;26.57;23.70;;;13.40;99.90;;;;;;10509607;28;20223;-69
2023/05/16 03:03:54;;;;;;;25.67;22.97;;;13.40;99.90;;;;;;10509451;28;20245;-69
2023/05/16 03:08:54;;;;;;;28.90;25.80;;;13.30;99.90;;;;;;10509031;28;20235;-68
2023/05/16 03:13:58;;;;;;;29.10;22.67;;;13.20;99.90;;;;;;10505256;28;20222;-71
2023/05/16 03:18:59;;;;;;;26.13;23.30;;;13.00;99.90;;;;;;10511960;28;20219;-71
2023/05/16 03:24:03;;;;;;;25.77;22.17;;;12.90;99.90;;;;;;10515170;28;20211;-69
2023/05/16 03:29:04;;;;;;;26.40;23.53;;;12.70;99.90;;;;;;10515383;28;20234;-69
2023/05/16 03:34:05;;;;;;;24.97;21.93;;;12.60;99.90;;;;;;10496701;28;20227;-69
2023/05/16 03:39:07;;;;;;;29.10;24.17;;;12.50;99.90;;;;;;10519625;28;20288;-71
2023/05/16 03:44:08;;;;;;;31.03;24.27;;;12.40;99.90;;;;;;10500709;28;20219;-68
2023/05/16 03:49:08;;;;;;;27.13;23.63;;;12.40;99.90;;;;;;10513550;28;20227;-68
2023/05/16 03:54:09;;;;;;;26.30;22.73;;;12.40;99.90;;;;;;10511222;28;20269;-68
2023/05/16 03:59:09;;;;;;;25.47;22.77;;;12.40;99.90;;;;;;10498560;28;20241;-72
2023/05/16 04:04:10;;;;;;;24.93;22.33;;;12.30;99.90;;;;;;10527907;28;20219;-68
2023/05/16 04:09:11;;;;;;;26.17;22.57;;;12.20;99.90;;;;;;10512942;28;20298;-73
2023/05/16 04:14:11;;;;;;;25.80;22.27;;;12.30;99.90;;;;;;10499843;28;20582;-69
2023/05/16 04:19:12;;;;;;;25.77;21.47;;;12.40;99.90;;;;;;10511720;28;20754;-72
2023/05/16 04:24:12;;;;;;;24.00;18.97;;;12.50;99.90;;;;;;10500514;28;20578;-72
2023/05/16 04:29:13;;;;;;;22.60;19.40;;;12.70;99.90;;;;;;10510877;28;20864;-70
2023/05/16 04:34:14;;;;;;;24.63;19.80;;;12.90;99.90;;;;;;10516819;28;20219;-71
2023/05/16 04:39:15;;;;;;;21.90;19.03;;;13.10;99.90;;;;;;10510363;28;20790;-72
2023/05/16 04:44:15;;;;;;;20.10;18.00;;;13.40;99.90;;;;;;10516585;28;20268;-74
2023/05/16 04:49:16;;;;;;;20.07;17.97;;;13.60;99.90;;;;;;10516902;28;20613;-73
2023/05/16 04:54:17;;;;;;;19.43;16.17;;;13.60;99.90;;;;;;10508237;28;20219;-72
2023/05/16 04:59:17;;;;;;;17.57;15.77;;;13.70;99.90;;;;;;10516289;28;20277;-73
2023/05/16 05:04:18;;;;;;;17.07;14.80;;;13.80;99.90;;;;;;10516643;28;20307;-73
2023/05/16 05:09:19;;;;;;;13.80;12.20;;;14.00;99.90;;;;;;10508153;28;20231;-73
2023/05/16 05:14:20;;;;;;;10.73;9.40;;;14.00;99.90;;;;;;10514678;28;20219;-73
2023/05/16 05:19:21;;;;;;;9.87;8.50;;;14.20;99.90;;;;;;10520656;28;20225;-70
2023/05/16 05:24:21;;;;;;;38.33;12.57;;;14.40;99.90;;;;;;10497153;28;20211;-70
2023/05/16 05:29:22;;;;;;;23.63;8.20;;;14.90;99.90;;;;;;10514629;28;20290;-70
2023/05/16 05:34:22;;;;;;;9.47;4.63;;;15.40;99.90;;;;;;10506756;28;20219;-70
2023/05/16 05:39:24;;;;;;;6.40;3.37;;;15.50;99.90;;;;;;10514837;28;20233;-70
2023/05/16 05:44:24;;;;;;;2.93;2.33;;;15.30;99.90;;;;;;10507438;28;20779;-70
2023/05/16 05:49:28;;;;;;;2.33;2.13;;;15.20;99.90;;;;;;10500068;28;20287;-71
2023/05/16 05:54:29;;;;;;;2.03;1.93;;;15.10;99.90;;;;;;10495329;28;20225;-73
2023/05/16 05:59:30;;;;;;;1.77;1.67;;;14.80;99.90;;;;;;10514589;28;20229;-72
2023/05/16 06:04:30;;;;;;;1.87;1.77;;;14.60;99.90;;;;;;10514131;28;20211;-73
2023/05/16 06:09:31;;;;;;;1.53;1.43;;;14.30;99.90;;;;;;10515760;28;20568;-72
2023/05/16 06:14:31;;;;;;;3.83;2.07;;;14.30;99.90;;;;;;10505333;28;20214;-72
2023/05/16 06:19:35;;;;;;;4.13;2.03;;;14.30;99.90;;;;;;10495638;28;20222;-73
2023/05/16 06:24:36;;;;;;;3.57;2.20;;;14.40;99.90;;;;;;10506901;28;20283;-73
2023/05/16 06:29:36;;;;;;;2.73;2.00;;;14.20;99.90;;;;;;10510820;28;20236;-73
2023/05/16 06:34:37;;;;;;;2.50;2.10;;;14.10;99.90;;;;;;10489063;28;20242;-73
2023/05/16 06:39:37;;;;;;;2.40;2.20;;;14.00;99.90;;;;;;10492802;28;20298;-73
2023/05/16 06:44:38;;;;;;;3.67;2.27;;;14.00;99.90;;;;;;10506918;28;20587;-73
2023/05/16 06:49:39;;;;;;;3.23;1.90;;;13.90;99.90;;;;;;10514097;28;20210;-72
2023/05/16 06:54:39;;;;;;;1.53;1.17;;;13.70;99.90;;;;;;10526313;28;20210;-73
2023/05/16 06:59:40;;;;;;;0.93;0.80;;;13.40;99.90;;;;;;10506755;28;20227;-73
2023/05/16 07:04:41;;;;;;;1.23;1.10;;;13.30;99.90;;;;;;10495232;28;20226;-73
2023/05/16 07:09:42;;;;;;;1.13;0.90;;;13.20;99.90;;;;;;10517578;28;20219;-73
2023/05/16 07:14:42;;;;;;;1.47;1.00;;;13.10;99.90;;;;;;10499992;28;20716;-73
2023/05/16 07:19:43;;;;;;;2.03;1.37;;;13.10;99.90;;;;;;10515406;28;20716;-74
2023/05/16 07:24:44;;;;;;;1.50;1.40;;;13.10;99.90;;;;;;10523683;28;20208;-73
2023/05/16 07:29:45;;;;;;;2.93;1.73;;;13.20;99.90;;;;;;10517406;28;20810;-72
2023/05/16 07:34:45;;;;;;;1.60;1.50;;;13.20;99.90;;;;;;10518098;28;20211;-72
2023/05/16 07:39:46;;;;;;;1.60;1.50;;;13.20;99.90;;;;;;10514812;28;20757;-73
2023/05/16 07:44:46;;;;;;;1.27;1.17;;;13.30;99.90;;;;;;10505388;28;20211;-74
2023/05/16 07:49:50;;;;;;;1.13;1.10;;;13.40;99.90;;;;;;10516217;28;20643;-73
2023/05/16 07:54:50;;;;;;;1.10;1.00;;;13.50;99.90;;;;;;10519896;28;20226;-73
2023/05/16 07:59:51;;;;;;;0.90;0.90;;;13.50;99.90;;;;;;10507181;28;20241;-73
2023/05/16 08:04:51;;;;;;;1.57;0.97;;;13.60;99.90;;;;;;10514469;28;20218;-72
2023/05/16 08:09:52;;;;;;;1.03;0.90;;;13.70;99.90;;;;;;10514917;28;20223;-73
2023/05/16 08:14:52;;;;;;;0.60;0.60;;;13.50;99.90;;;;;;10521296;28;20222;-73
2023/05/16 08:19:53;;;;;;;0.83;0.50;;;13.50;99.90;;;;;;10514300;28;20245;-74
2023/05/16 08:24:59;;;;;;;1.03;0.40;;;13.40;99.90;;;;;;10514080;28;20210;-73
2023/05/16 08:29:59;;;;;;;0.63;0.40;;;13.00;99.90;;;;;;10513428;28;20254;-73
2023/05/16 08:35:00;;;;;;;0.90;0.50;;;13.00;99.90;;;;;;10497217;28;20226;-73
2023/05/16 08:40:01;;;;;;;0.60;0.33;;;12.90;99.90;;;;;;10518410;28;20230;-73
2023/05/16 08:45:02;;;;;;;1.30;0.30;;;12.70;99.90;;;;;;10512100;28;20302;-74
2023/05/16 08:50:06;;;;;;;0.93;0.50;;;12.50;99.90;;;;;;10523826;28;20716;-73
2023/05/16 08:55:08;;;;;;;0.60;0.50;;;12.70;99.90;;;;;;10507488;28;20613;-74
2023/05/16 09:00:12;;;;;;;1.13;0.57;;;12.90;99.90;;;;;;10512612;28;20203;-73
2023/05/16 09:05:16;;;;;;;0.63;0.63;;;13.10;99.90;;;;;;10516023;28;20183;-73
2023/05/16 09:10:17;;;;;;;0.53;0.50;;;13.20;99.90;;;;;;10517478;28;20205;-73
2023/05/16 09:15:20;;;;;;;1.17;1.07;;;13.20;99.90;;;;;;10508651;28;20179;-74
2023/05/16 09:20:21;;;;;;;1.03;0.63;;;13.00;99.90;;;;;;10513759;28;20207;-74
2023/05/16 09:25:26;;;;;;;5.33;0.67;;;13.30;99.90;;;;;;10507840;28;20699;-74
2023/05/16 09:30:32;;;;;;;0.80;0.40;;;13.70;99.90;;;;;;10497861;28;20212;-73
2023/05/16 09:35:32;;;;;;;1.87;0.40;;;14.40;99.90;;;;;;10514268;28;20231;-73
2023/05/16 09:40:33;;;;;;;0.50;0.47;;;14.80;99.90;;;;;;10515452;28;20224;-74
2023/05/16 09:45:35;;;;;;;1.63;0.70;;;14.90;99.90;;;;;;10513771;28;20282;-73
2023/05/16 09:50:36;;;;;;;1.97;0.70;;;15.00;99.90;;;;;;10507831;28;20276;-73
2023/05/16 09:55:37;;;;;;;4.03;1.00;;;15.30;99.90;;;;;;10491183;28;20212;-73
2023/05/16 10:00:39;;;;;;;1.80;0.70;;;15.40;99.90;;;;;;10508586;28;20220;-72
2023/05/16 10:05:40;;;;;;;2.00;0.70;;;15.40;99.90;;;;;;10519838;28;20228;-73
2023/05/16 10:10:41;;;;;;;1.53;0.70;;;15.60;99.90;;;;;;10513327;28;20282;-73
2023/05/16 10:15:42;;;;;;;3.73;0.87;;;16.50;99.90;;;;;;10511671;28;20297;-74
2023/05/16 10:20:47;;;;;;;2.07;0.70;;;17.80;99.90;;;;;;10512887;28;20218;-73
2023/05/16 10:25:48;;;;;;;3.60;0.93;;;18.30;99.90;;;;;;10510316;28;20945;-73
2023/05/16 10:30:50;;;;;;;2.77;0.90;;;18.00;99.90;;;;;;10509195;28;20321;-73
2023/05/16 10:35:51;;;;;;;1.00;0.80;;;17.30;99.90;;;;;;10492375;28;20220;-73
2023/05/16 10:40:52;;;;;;;3.00;1.20;;;16.00;99.90;;;;;;10510059;28;20299;-73
2023/05/16 10:45:58;;;;;;;3.90;1.17;;;15.40;99.90;;;;;;10498926;28;20672;-73
2023/05/16 10:51:01;;;;;;;2.67;1.00;;;15.20;99.90;;;;;;10498434;28;20214;-73
2023/05/16 10:56:02;;;;;;;4.03;1.20;;;15.20;99.90;;;;;;10489704;28;20222;-73
2023/05/16 11:01:23;;;;;;;2.60;1.20;;;15.10;99.90;;;;;;10511300;28;20570;-74
2023/05/16 11:06:31;;;;;;;2.77;1.20;;;14.70;99.90;;;;;;10503298;28;20677;-74
2023/05/16 11:11:50;;;;;;;3.47;1.17;;;15.00;99.90;;;;;;10503869;28;20223;-74
2023/05/16 11:16:58;;;;;;;4.43;1.20;;;15.50;99.90;;;;;;10512370;28;20593;-74
2023/05/16 11:22:20;;;;;;;3.57;1.40;;;15.80;99.90;;;;;;10501503;28;20216;-73
2023/05/16 11:27:22;;;;;;;5.97;2.00;;;16.20;99.90;;;;;;10512120;28;20331;-73
2023/05/16 11:32:23;;;;;;;3.60;1.50;;;16.90;99.90;;;;;;10504151;28;20775;-74
2023/05/16 11:37:23;;;;;;;8.33;1.80;;;16.90;99.90;;;;;;10487089;28;20234;-74
2023/05/16 11:42:27;;;;;;;4.83;1.73;;;17.30;99.90;;;;;;10511551;28;20249;-74
2023/05/16 11:47:28;;;;;;;7.30;1.73;;;17.40;99.90;;;;;;10493797;28;20724;-74
2023/05/16 11:52:30;;;;;;;6.67;1.90;;;17.50;99.90;;;;;;10500902;28;20633;-74
2023/05/16 11:57:33;;;;;;;3.90;1.60;;;17.70;99.60;;;;;;10518273;28;20226;-74
2023/05/16 12:02:34;;;;;;;5.50;2.23;;;17.80;98.00;;;;;;10519012;28;20218;-73
2023/05/16 12:07:36;;;;;;;9.77;2.10;;;17.90;97.90;;;;;;10519346;28;20593;-74
2023/05/16 12:12:39;;;;;;;3.83;1.30;;;17.70;96.20;;;;;;10495032;28;20219;-73
2023/05/16 12:17:40;;;;;;;6.43;2.50;;;18.40;93.30;;;;;;10516298;28;20227;-73
2023/05/16 12:22:45;;;;;;;4.47;1.63;;;19.20;88.60;;;;;;10512265;28;20210;-73
2023/05/16 12:27:45;;;;;;;5.33;1.57;;;19.00;86.40;;;;;;10524042;28;20223;-73
2023/05/16 12:32:57;;;;;;;7.20;1.53;;;18.50;86.30;;;;;;10494544;28;20246;-73
2023/05/16 12:37:59;;;;;;;5.43;1.57;;;17.80;86.10;;;;;;10520621;28;20223;-73
2023/05/16 12:43:01;;;;;;;7.33;1.63;;;18.10;86.80;;;;;;10496646;28;20242;-72
2023/05/16 12:48:10;;;;;;;5.60;1.80;;;18.50;86.80;;;;;;10511734;28;20242;-73
2023/05/16 12:53:13;;;;;;;7.03;1.63;;;18.20;84.10;;;;;;10515100;28;20245;-73
2023/05/16 12:58:13;;;;;;;9.43;1.70;;;18.20;85.10;;;;;;10524148;28;20762;-73
2023/05/16 13:03:14;;;;;;;3.90;1.50;;;17.80;86.30;;;;;;10508978;28;20300;-73
2023/05/16 13:08:14;;;;;;;6.10;1.87;;;17.20;88.70;;;;;;10507683;28;20590;-73
2023/05/16 13:13:15;;;;;;;2.90;1.50;;;16.80;89.00;;;;;;10522398;28;20246;-73
2023/05/16 13:18:16;;;;;;;6.80;1.57;;;16.60;90.40;;;;;;10489489;28;20304;-74
2023/05/16 13:23:17;;;;;;;4.27;1.63;;;16.80;90.00;;;;;;10516773;28;20562;-74
2023/05/16 13:28:17;;;;;;;5.03;1.50;;;17.20;90.30;;;;;;10497118;28;20632;-74
2023/05/16 13:33:18;;;;;;;8.63;1.50;;;17.40;85.60;;;;;;10497452;28;20335;-74
2023/05/16 13:38:18;;;;;;;3.50;1.40;;;17.40;81.20;;;;;;10514969;28;20217;-73
2023/05/16 13:43:19;;;;;;;3.80;1.30;;;17.40;79.00;;;;;;10488871;28;20732;-73
2023/05/16 13:48:19;;;;;;;5.60;1.30;;;17.50;76.70;;;;;;10514063;28;20224;-74
2023/05/16 13:53:20;;;;;;;6.23;1.50;;;17.50;76.20;;;;;;10489008;28;20268;-73
2023/05/16 13:58:20;;;;;;;7.50;1.40;;;17.60;74.60;;;;;;10514130;28;20230;-73
2023/05/16 14:03:21;;;;;;;4.40;1.40;;;17.90;74.80;;;;;;10514186;28;20244;-73
2023/05/16 14:08:22;;;;;;;3.90;1.40;;;18.10;70.70;;;;;;10513404;28;20227;-72
2023/05/16 14:13:23;;;;;;;5.23;1.87;;;18.20;69.70;;;;;;10495555;28;20749;-73
2023/05/16 14:18:23;;;;;;;4.93;1.20;;;17.50;72.10;;;;;;10505313;28;20221;-74
2023/05/16 14:23:24;;;;;;;4.23;1.30;;;17.50;71.20;;;;;;10505204;28;20311;-73
2023/05/16 14:28:24;;;;;;;4.47;1.20;;;18.00;69.20;;;;;;10504602;28;20228;-73
2023/05/16 14:33:25;;;;;;;4.17;1.20;;;18.10;68.30;;;;;;10516588;28;20561;-73
2023/05/16 14:38:26;;;;;;;3.97;1.23;;;18.70;64.70;;;;;;10510224;28;20229;-73
2023/05/16 14:43:27;;;;;;;5.80;1.20;;;18.40;65.50;;;;;;10512770;28;20224;-73
2023/05/16 14:48:28;;;;;;;4.80;1.67;;;17.90;64.50;;;;;;10504654;28;20218;-74
2023/05/16 14:53:28;;;;;;;5.40;1.63;;;17.70;66.40;;;;;;10494401;28;20221;-74
2023/05/16 14:58:29;;;;;;;5.20;1.50;;;18.00;66.40;;;;;;10487117;28;20260;-74
2023/05/16 15:03:31;;;;;;;5.00;1.37;;;18.30;66.50;;;;;;10494571;28;20304;-73
2023/05/16 15:08:33;;;;;;;8.57;1.60;;;17.90;64.00;;;;;;10511957;28;20223;-73
2023/05/16 15:13:34;;;;;;;5.60;1.37;;;17.60;66.50;;;;;;10504524;28;20237;-73
2023/05/16 15:18:35;;;;;;;7.20;1.37;;;17.20;68.20;;;;;;10512787;28;20291;-73
2023/05/16 15:23:36;;;;;;;6.10;1.37;;;16.60;66.70;;;;;;10517298;28;20198;-73
2023/05/16 15:28:37;;;;;;;5.00;1.30;;;16.80;68.10;;;;;;10500864;28;20235;-74
2023/05/16 15:33:38;;;;;;;3.77;1.20;;;16.90;65.90;;;;;;10501858;28;20213;-74
2023/05/16 15:38:43;;;;;;;5.00;1.17;;;17.20;63.70;;;;;;10513250;28;20225;-78
2023/05/16 15:43:43;;;;;;;2.67;0.90;;;17.40;64.10;;;;;;10517261;28;20308;-73
2023/05/16 15:48:44;;;;;;;4.97;1.70;;;17.50;64.40;;;;;;10523121;28;20687;-74
2023/05/16 15:53:46;;;;;;;7.53;1.27;;;17.70;64.00;;;;;;10496193;28;20296;-74
2023/05/16 15:58:46;;;;;;;5.23;1.23;;;17.40;66.00;;;;;;10497497;28;20225;-73
2023/05/16 16:03:47;;;;;;;4.30;1.07;;;17.00;64.90;;;;;;10514365;28;20225;-73
2023/05/16 16:08:48;;;;;;;4.43;1.17;;;17.10;65.80;;;;;;10515595;28;20221;-72
2023/05/16 16:13:48;;;;;;;7.93;1.27;;;17.40;63.60;;;;;;10500025;28;20740;-74
2023/05/16 16:18:49;;;;;;;3.00;1.00;;;16.90;62.00;;;;;;10494580;28;20627;-73
2023/05/16 16:23:49;;;;;;;4.93;0.97;;;16.80;64.20;;;;;;10518165;28;20882;-73
2023/05/16 16:28:50;;;;;;;3.70;1.00;;;16.70;63.50;;;;;;10519375;28;20305;-73
2023/05/16 16:33:50;;;;;;;2.63;1.20;;;16.90;65.90;;;;;;10517306;28;20284;-74
2023/05/16 16:38:51;;;;;;;2.77;0.90;;;17.10;61.80;;;;;;10512904;28;20229;-75
2023/05/16 16:43:52;;;;;;;5.07;1.17;;;16.70;60.60;;;;;;10513657;28;20220;-73
2023/05/16 16:48:53;;;;;;;6.03;1.00;;;16.50;61.90;;;;;;10513505;28;20219;-74
2023/05/16 16:53:54;;;;;;;2.60;0.90;;;16.20;61.40;;;;;;10516845;28;20262;-73
2023/05/16 16:58:55;;;;;;;3.43;1.13;;;16.10;62.70;;;;;;10519190;28;20295;-73
2023/05/16 17:03:56;;;;;;;4.33;3.03;;;16.10;63.60;;;;;;10513750;28;20748;-74
2023/05/16 17:09:01;;;;;;;4.27;1.20;;;16.00;62.80;;;;;;10519837;28;20217;-73
2023/05/16 17:14:04;;;;;;;7.77;1.33;;;15.90;64.00;;;;;;10513587;28;20230;-73
2023/05/16 17:19:06;;;;;;;4.10;1.10;;;15.80;64.00;;;;;;10510307;28;20305;-73
2023/05/16 17:24:07;;;;;;;4.57;1.10;;;15.70;64.80;;;;;;10489078;28;20267;-74
2023/05/16 17:29:07;;;;;;;3.50;1.43;;;15.60;65.70;;;;;;10527337;28;20699;-74
2023/05/16 17:34:08;;;;;;;3.20;0.80;;;15.50;67.30;;;;;;10497264;28;20649;-73
2023/05/16 17:39:11;;;;;;;3.00;0.90;;;15.50;66.70;;;;;;10515405;28;20226;-73
2023/05/16 17:44:12;;;;;;;3.20;0.90;;;15.60;67.70;;;;;;10505813;28;20921;-73
2023/05/16 17:49:13;;;;;;;2.23;0.90;;;15.70;68.50;;;;;;10514531;28;20293;-74
2023/05/16 17:54:15;;;;;;;2.30;0.90;;;15.80;68.00;;;;;;10515654;28;20308;-73
2023/05/16 17:59:16;;;;;;;2.70;0.80;;;15.90;68.40;;;;;;10494847;28;20658;-73
2023/05/16 18:04:19;;;;;;;2.43;1.10;;;15.90;67.70;;;;;;10507246;28;20236;-73
2023/05/16 18:09:20;;;;;;;2.90;1.10;;;15.70;69.50;;;;;;10513680;28;20692;-72
2023/05/16 18:14:21;;;;;;;4.87;1.00;;;15.50;68.10;;;;;;10506702;28;20232;-72
2023/05/16 18:19:21;;;;;;;2.83;1.03;;;15.30;68.80;;;;;;10495212;28;20232;-73
2023/05/16 18:24:22;;;;;;;4.10;1.07;;;15.20;69.40;;;;;;10522449;28;20210;-72
2023/05/16 18:29:23;;;;;;;2.70;1.10;;;15.10;70.00;;;;;;10505999;28;20320;-73
2023/05/16 18:34:23;;;;;;;1.80;0.90;;;15.00;70.70;;;;;;10514279;28;20225;-74
2023/05/16 18:39:24;;;;;;;2.60;1.00;;;14.80;71.60;;;;;;10487104;28;20227;-74
2023/05/16 18:44:24;;;;;;;4.20;1.27;;;14.60;72.60;;;;;;10506055;28;20236;-73
2023/05/16 18:49:25;;;;;;;3.77;0.90;;;14.40;74.00;;;;;;10513571;28;20309;-73
2023/05/16 18:54:26;;;;;;;2.60;1.00;;;14.20;74.90;;;;;;10512193;28;20218;-73
2023/05/16 18:59:26;;;;;;;2.93;1.00;;;14.10;76.40;;;;;;10499598;28;20763;-73
2023/05/16 19:04:33;;;;;;;2.67;0.93;;;13.90;77.80;;;;;;10503934;28;20281;-73
2023/05/16 19:09:33;;;;;;;5.00;1.20;;;13.80;77.70;;;;;;10521093;28;20302;-73
2023/05/16 19:14:34;;;;;;;4.50;1.10;;;13.60;78.40;;;;;;10514417;28;20318;-73
2023/05/16 19:19:35;;;;;;;4.07;1.30;;;13.60;78.60;;;;;;10520299;28;20262;-73
2023/05/16 19:24:35;;;;;;;4.03;1.10;;;13.40;78.70;;;;;;10494995;28;20227;-73
2023/05/16 19:29:36;;;;;;;3.00;0.87;;;13.20;79.50;;;;;;10519544;28;20682;-73
2023/05/16 19:34:36;;;;;;;4.43;1.00;;;13.10;80.40;;;;;;10522573;28;20211;-73
2023/05/16 19:39:37;;;;;;;2.73;0.90;;;13.00;80.90;;;;;;10520367;28;20227;-73
2023/05/16 19:44:37;;;;;;;4.37;1.27;;;12.90;81.40;;;;;;10528924;28;20860;-73
2023/05/16 19:49:38;;;;;;;3.33;1.00;;;12.80;82.70;;;;;;10499927;28;20226;-73
2023/05/16 19:54:40;;;;;;;2.77;0.93;;;12.60;83.60;;;;;;10512017;28;20564;-73
2023/05/16 19:59:40;;;;;;;2.80;1.10;;;12.50;84.40;;;;;;10495580;28;20605;-73
2023/05/16 20:04:41;;;;;;;3.13;0.93;;;12.40;86.10;;;;;;10517931;28;20226;-74
2023/05/16 20:09:42;;;;;;;2.30;1.00;;;12.30;86.20;;;;;;10513808;28;20686;-74
2023/05/16 20:14:42;;;;;;;2.87;0.90;;;12.20;87.90;;;;;;10516059;28;20685;-72
2023/05/16 20:19:43;;;;;;;2.80;1.27;;;12.10;88.40;;;;;;10519337;28;20219;-73
2023/05/16 20:24:47;;;;;;;5.20;1.20;;;12.00;89.30;;;;;;10508801;28;20330;-73
2023/05/16 20:29:53;;;;;;;3.27;1.00;;;11.90;90.20;;;;;;10496138;28;20235;-73
2023/05/16 20:34:54;;;;;;;2.00;0.77;;;11.80;90.70;;;;;;10496521;28;20219;-73
2023/05/16 20:39:54;;;;;;;4.00;1.27;;;11.70;90.90;;;;;;10514476;28;20234;-73
2023/05/16 20:44:55;;;;;;;6.57;1.30;;;11.60;91.40;;;;;;10500081;28;20234;-72
2023/05/16 20:49:56;;;;;;;4.43;1.50;;;11.50;91.60;;;;;;10513643;28;20298;-73
2023/05/16 20:54:57;;;;;;;5.27;1.57;;;11.40;92.00;;;;;;10513971;28;20221;-73
2023/05/16 20:59:57;;;;;;;2.13;1.10;;;11.40;92.20;;;;;;10512690;28;20644;-73
2023/05/16 21:04:58;;;;;;;2.97;0.93;;;11.30;92.40;;;;;;10517294;28;20214;-73
2023/05/16 21:09:59;;;;;;;2.83;1.30;;;11.20;92.70;;;;;;10521808;28;20301;-72
2023/05/16 21:14:59;;;;;;;3.23;1.20;;;11.20;93.10;;;;;;10512494;28;20222;-73
2023/05/16 21:20:00;;;;;;;4.23;1.23;;;11.10;93.40;;;;;;10521230;28;20241;-73
2023/05/16 21:25:00;;;;;;;3.27;1.20;;;11.00;93.80;;;;;;10508344;28;20221;-72
2023/05/16 21:30:01;;;;;;;3.87;1.20;;;10.90;94.00;;;;;;10511468;28;20237;-73
2023/05/16 21:35:03;;;;;;;4.20;1.20;;;10.90;94.40;;;;;;10501143;28;20247;-72
2023/05/16 21:40:07;;;;;;;3.07;1.10;;;10.80;94.70;;;;;;10495669;28;20226;-73
2023/05/16 21:45:11;;;;;;;3.33;1.40;;;10.80;95.00;;;;;;10518046;28;20685;-73
2023/05/16 21:50:12;;;;;;;2.57;0.97;;;10.80;95.20;;;;;;10509958;28;20207;-73
2023/05/16 21:55:12;;;;;;;4.23;1.40;;;10.80;95.80;;;;;;10513684;28;20219;-73
2023/05/16 22:00:14;;;;;;;2.70;1.13;;;10.70;95.80;;;;;;10508755;28;20677;-73
2023/05/16 22:05:18;;;;;;;7.03;1.80;;;10.60;96.30;;;;;;10513963;28;20174;-72
2023/05/16 22:10:22;;;;;;;3.60;1.70;;;10.60;96.60;;;;;;10507461;28;20206;-72
2023/05/16 22:15:22;;;;;;;4.40;1.60;;;10.50;97.00;;;;;;10514267;28;20193;-72
2023/05/16 22:20:25;;;;;;;3.87;1.67;;;10.50;97.70;;;;;;10496371;28;20211;-72
2023/05/16 22:25:25;;;;;;;5.00;1.53;;;10.40;98.20;;;;;;10513000;28;20211;-73
2023/05/16 22:30:26;;;;;;;4.30;1.80;;;10.40;98.30;;;;;;10496217;28;20219;-73
2023/05/16 22:35:30;;;;;;;4.03;1.50;;;10.40;98.60;;;;;;10513568;28;20237;-74
2023/05/16 22:40:30;;;;;;;3.27;1.43;;;10.40;99.10;;;;;;10506031;28;20230;-73
2023/05/16 22:45:31;;;;;;;3.63;1.30;;;10.30;99.40;;;;;;10505257;28;20226;-73
2023/05/16 22:50:32;;;;;;;4.57;1.20;;;10.30;99.90;;;;;;10506726;28;20222;-72
2023/05/16 22:55:35;;;;;;;2.53;1.40;;;10.20;99.90;;;;;;10498193;28;20226;-72
2023/05/16 23:00:36;;;;;;;3.97;1.40;;;10.10;99.90;;;;;;10514876;28;20223;-72
2023/05/16 23:05:36;;;;;;;3.20;1.30;;;10.00;99.90;;;;;;10501332;28;20248;-73
2023/05/16 23:10:37;;;;;;;3.60;1.30;;;10.00;99.90;;;;;;10507611;28;20306;-73
2023/05/16 23:15:37;;;;;;;4.43;1.80;;;9.90;99.90;;;;;;10511867;28;20190;-72
2023/05/16 23:20:38;;;;;;;3.57;2.20;;;9.80;99.90;;;;;;10506862;28;20231;-72
2023/05/16 23:25:38;;;;;;;4.70;1.90;;;9.70;99.90;;;;;;10512613;28;20218;-72
2023/05/16 23:30:39;;;;;;;4.97;1.87;;;9.60;99.90;;;;;;10513596;28;20219;-73
2023/05/16 23:35:40;;;;;;;4.43;1.70;;;9.60;99.90;;;;;;10519150;28;20309;-75
2023/05/16 23:40:40;;;;;;;2.57;1.40;;;9.50;99.90;;;;;;10510949;28;20223;-73
2023/05/16 23:45:41;;;;;;;5.63;1.67;;;9.50;99.90;;;;;;10508276;28;20222;-73
2023/05/16 23:50:42;;;;;;;3.50;1.33;;;9.50;99.90;;;;;;10512536;28;20256;-73
2023/05/16 23:55:43;;;;;;;5.30;1.70;;;9.60;99.90;;;;;;10514460;28;20219;-73
